首页
METAR-TAF:

METAR-TAF

机场 :

Elsenborn

比辰巴赫, 比利时

纬度: 50-28N, 经度: 006-11E, 海拔: 564米

当前天气观测

该预报发布于33分钟前的18:25 UTC
风速1节,风向多变
温度 13°C
湿度 67%
气压 1016 hPa
能见度10公里或以上

METAR: EBLB 211825Z AUTO VRB01KT 9999 NCD 13/07 Q1016 BLU

时间: 20:58 (18:58 UTC)


TAF: 丢失

超过4000个机场的气象观测和天气预报(METAR&TAF报告)。

可查询的气象台以黄色和红色小点在地图上表示。

将鼠标移到小点上方,可查看气象台名称。

然后点击查看天气观测和预报。

如需切换地图:点击带黑十字的绿色按钮放大地图;点击带横线的绿色按钮缩小地图;或者点击绿色箭头查看邻近地区的地图。


METAR-TAF: